Time;durP1;ratioP1;P1;durP2;ratioP2;P2;SDS_P1;SDS_P2;PMS_P1;PMS_P2;Temp;Humidity;BMP_temperature;BMP_pressure;BME280_temperature;BME280_humidity;BME280_pressure;Samples;Min_cycle;Max_cycle;Signal;HPM_P1;HPM_P2
2021/03/29 00:01:02;;;;;;;7.80;2.53;;;;;;;11.45;40.54;97954.44;5029272;28;20442;-68
2021/03/29 00:03:27;;;;;;;9.07;2.77;;;;;;;11.48;40.32;97946.28;5030567;28;20426;-70
2021/03/29 00:05:53;;;;;;;13.40;2.90;;;;;;;11.47;40.43;97955.13;5029010;28;20220;-68
2021/03/29 00:08:22;;;;;;;6.73;2.93;;;;;;;11.52;40.71;97955.53;5030126;28;20183;-66
2021/03/29 00:10:50;;;;;;;5.20;2.63;;;;;;;11.52;40.71;97950.28;5012896;28;20192;-69
2021/03/29 00:13:16;;;;;;;7.53;3.33;;;;;;;11.49;40.62;97949.75;5029436;28;20433;-68
2021/03/29 00:15:47;;;;;;;6.13;3.20;;;;;;;11.55;40.30;97953.59;5028164;28;20843;-69
2021/03/29 00:18:13;;;;;;;8.47;2.97;;;;;;;11.53;40.54;97951.94;5013665;28;20537;-66
2021/03/29 00:20:47;;;;;;;4.90;2.57;;;;;;;11.57;40.62;97951.69;5027244;28;20918;-68
2021/03/29 00:23:12;;;;;;;3.80;2.30;;;;;;;11.56;40.46;97956.06;5029688;28;20473;-68
2021/03/29 00:25:38;;;;;;;7.97;2.47;;;;;;;11.57;40.19;97963.00;5027678;28;20458;-67
2021/03/29 00:28:05;;;;;;;3.77;2.40;;;;;;;11.59;39.74;97961.06;5029182;28;20211;-67
2021/03/29 00:30:36;;;;;;;7.80;2.47;;;;;;;11.62;39.85;97963.41;5032027;28;20802;-68
2021/03/29 00:33:05;;;;;;;6.07;2.37;;;;;;;11.63;39.53;97964.22;5034121;28;20191;-68
2021/03/29 00:35:32;;;;;;;5.20;2.73;;;;;;;11.68;39.57;97962.00;5032496;28;20647;-66
2021/03/29 00:37:58;;;;;;;5.10;2.63;;;;;;;11.68;39.18;97960.19;5032471;28;20529;-68
2021/03/29 00:40:26;;;;;;;4.60;2.03;;;;;;;11.64;39.47;97955.38;5034105;28;20473;-67
2021/03/29 00:42:58;;;;;;;8.47;3.00;;;;;;;11.61;40.03;97959.13;5031557;28;20460;-66
2021/03/29 00:45:25;;;;;;;2.90;2.20;;;;;;;11.56;40.12;97957.88;5033224;28;20921;-67
2021/03/29 00:47:52;;;;;;;4.63;2.43;;;;;;;11.54;40.45;97971.13;5033745;28;20491;-67
2021/03/29 00:50:39;;;;;;;4.57;2.60;;;;;;;11.49;40.54;97961.06;5031694;28;20427;-67
2021/03/29 00:53:05;;;;;;;4.97;3.03;;;;;;;11.44;40.53;97968.53;5032887;28;20422;-69
2021/03/29 00:55:31;;;;;;;3.77;2.70;;;;;;;11.37;40.99;97972.66;5031500;28;20438;-68
2021/03/29 00:57:58;;;;;;;7.83;2.87;;;;;;;11.30;41.17;97964.53;5027441;28;20444;-66
2021/03/29 01:00:32;;;;;;;8.23;2.90;;;;;;;11.27;40.99;97967.44;5032617;28;20180;-68
2021/03/29 01:02:57;;;;;;;6.57;2.73;;;;;;;11.21;41.11;97968.78;5032540;28;20545;-68
2021/03/29 01:05:23;;;;;;;6.47;3.23;;;;;;;11.17;41.14;97969.22;5031623;28;20513;-69
2021/03/29 01:07:50;;;;;;;5.30;2.80;;;;;;;11.13;41.34;97980.97;5033283;28;20213;-67
2021/03/29 01:10:16;;;;;;;4.60;2.90;;;;;;;11.11;41.50;97967.16;5033231;28;20231;-66
2021/03/29 01:12:44;;;;;;;3.90;2.43;;;;;;;11.08;41.38;97973.50;5031245;28;20828;-67
2021/03/29 01:15:12;;;;;;;7.50;2.77;;;;;;;11.01;41.53;97972.38;5031210;28;20236;-68
2021/03/29 01:17:39;;;;;;;3.90;2.50;;;;;;;10.99;41.61;97976.94;5032226;28;20430;-69
2021/03/29 01:20:04;;;;;;;5.40;2.53;;;;;;;10.99;41.33;97974.31;5029152;28;20852;-67
2021/03/29 01:22:41;;;;;;;5.73;2.70;;;;;;;10.95;41.62;97973.75;5029179;28;20445;-67
2021/03/29 01:25:21;;;;;;;6.70;2.97;;;;;;;10.96;41.84;97975.41;5022531;28;20215;-68
2021/03/29 01:27:50;;;;;;;5.80;2.70;;;;;;;10.94;42.06;97977.34;5033058;28;20426;-69
2021/03/29 01:30:17;;;;;;;4.50;2.70;;;;;;;10.85;42.77;97973.72;5030761;28;20498;-69
2021/03/29 01:32:45;;;;;;;10.80;3.10;;;;;;;10.74;43.63;97981.72;5032976;28;20447;-69
2021/03/29 01:35:18;;;;;;;6.93;2.90;;;;;;;10.77;43.45;97984.06;5030562;28;20937;-65
2021/03/29 01:37:45;;;;;;;5.47;3.20;;;;;;;10.67;43.47;97977.97;5033010;28;20544;-67
2021/03/29 01:40:13;;;;;;;5.17;2.90;;;;;;;10.61;43.57;97979.34;5030948;28;20454;-68
2021/03/29 01:42:40;;;;;;;3.53;2.47;;;;;;;10.58;43.69;97980.44;5030601;28;20450;-68
2021/03/29 01:45:06;;;;;;;12.57;3.43;;;;;;;10.45;44.08;97972.81;5031946;28;20453;-69
2021/03/29 01:47:32;;;;;;;7.30;2.83;;;;;;;10.15;44.68;97979.66;5031652;28;20492;-69
2021/03/29 01:49:58;;;;;;;8.17;3.17;;;;;;;10.25;44.31;97977.09;5029770;28;20435;-68
2021/03/29 01:52:23;;;;;;;6.50;3.40;;;;;;;10.06;44.82;97971.78;5032336;28;20204;-68
2021/03/29 01:54:50;;;;;;;4.67;2.83;;;;;;;9.99;45.41;97974.91;5030615;28;20204;-68
2021/03/29 01:57:15;;;;;;;4.30;2.70;;;;;;;9.73;45.44;97982.34;5014124;28;20677;-66
2021/03/29 01:59:41;;;;;;;3.80;3.00;;;;;;;9.98;44.89;97975.88;5028721;28;20470;-68
2021/03/29 02:02:07;;;;;;;5.23;3.20;;;;;;;9.66;45.41;97978.56;5030116;28;20471;-66
2021/03/29 02:04:33;;;;;;;5.00;3.00;;;;;;;9.91;44.59;97973.91;5030132;28;20237;-67
2021/03/29 02:07:02;;;;;;;3.73;2.80;;;;;;;9.66;45.10;97971.56;5030898;28;20441;-70
2021/03/29 02:09:28;;;;;;;7.50;2.80;;;;;;;9.90;44.31;97980.94;5031786;28;20430;-67
2021/03/29 02:11:54;;;;;;;7.50;2.50;;;;;;;9.70;44.63;97974.75;5030457;28;20962;-68
2021/03/29 02:14:20;;;;;;;3.10;2.60;;;;;;;10.01;44.05;97968.72;5030418;28;20464;-68
2021/03/29 02:16:46;;;;;;;6.63;2.63;;;;;;;9.98;43.77;97973.25;5032032;28;20655;-69
2021/03/29 02:19:12;;;;;;;3.70;2.17;;;;;;;9.98;43.62;97965.41;5029038;28;20480;-67
2021/03/29 02:21:41;;;;;;;3.43;2.90;;;;;;;10.13;43.37;97973.75;5031848;28;20997;-68
2021/03/29 02:24:09;;;;;;;20.40;2.63;;;;;;;10.01;43.78;97966.94;5030840;28;20202;-67
2021/03/29 02:26:38;;;;;;;5.83;2.70;;;;;;;9.70;44.33;97981.78;5029909;28;20434;-68
2021/03/29 02:29:05;;;;;;;3.13;2.17;;;;;;;9.98;44.06;97970.63;5029617;28;20510;-68
2021/03/29 02:31:31;;;;;;;7.53;2.87;;;;;;;9.75;44.22;97969.97;5030627;28;20443;-68
2021/03/29 02:33:58;;;;;;;4.40;2.37;;;;;;;9.94;43.88;97977.13;5030328;28;20851;-68
2021/03/29 02:36:23;;;;;;;3.53;2.50;;;;;;;9.99;44.05;97972.28;5030285;28;20198;-67
2021/03/29 02:38:50;;;;;;;9.40;2.50;;;;;;;10.07;43.95;97979.50;5030988;28;20933;-66
2021/03/29 02:41:17;;;;;;;3.60;2.50;;;;;;;9.98;43.87;97975.06;5031613;28;20200;-68
2021/03/29 02:43:47;;;;;;;3.13;2.40;;;;;;;10.05;43.70;97975.38;5030276;28;20434;-66
2021/03/29 02:46:12;;;;;;;4.40;2.60;;;;;;;10.04;43.87;97974.53;5015009;28;20462;-67
2021/03/29 02:48:41;;;;;;;3.53;2.33;;;;;;;10.02;43.86;97971.19;5030238;28;20453;-67
2021/03/29 02:51:10;;;;;;;5.47;2.47;;;;;;;9.97;44.11;97974.22;5030725;28;20199;-67
2021/03/29 02:53:36;;;;;;;5.10;2.43;;;;;;;9.89;43.80;97966.19;5029463;28;20878;-67
2021/03/29 02:56:10;;;;;;;4.30;2.50;;;;;;;9.77;44.20;97977.69;5028804;28;20418;-68
2021/03/29 02:58:41;;;;;;;4.47;2.57;;;;;;;9.65;44.76;97975.13;5027111;28;21001;-68
2021/03/29 03:01:13;;;;;;;4.00;2.30;;;;;;;9.75;44.38;97969.13;5015163;28;20440;-67
2021/03/29 03:03:39;;;;;;;3.70;2.60;;;;;;;9.75;44.14;97979.59;5019344;28;20484;-69
2021/03/29 03:06:06;;;;;;;3.97;2.77;;;;;;;9.70;44.17;97976.53;5021943;28;20423;-68
2021/03/29 03:08:36;;;;;;;5.00;2.70;;;;;;;9.71;44.03;97980.78;5024187;28;20422;-67
2021/03/29 03:11:02;;;;;;;4.80;3.00;;;;;;;9.66;43.96;97982.03;5019529;28;20969;-67
2021/03/29 03:13:28;;;;;;;3.93;2.73;;;;;;;9.67;44.44;97973.22;5016702;28;20879;-67
2021/03/29 03:15:53;;;;;;;3.13;2.83;;;;;;;9.74;44.16;97985.78;5009918;28;20473;-67
2021/03/29 03:18:22;;;;;;;8.03;3.10;;;;;;;9.72;44.28;97988.53;5011813;28;20204;-67
2021/03/29 03:20:47;;;;;;;5.20;2.90;;;;;;;9.67;43.81;97991.53;5010540;28;20453;-68
2021/03/29 03:23:17;;;;;;;8.03;2.60;;;;;;;9.66;44.53;97991.66;5010932;28;20189;-67
2021/03/29 03:25:47;;;;;;;4.93;2.70;;;;;;;9.61;44.45;97992.03;5010631;28;20707;-68
2021/03/29 03:28:15;;;;;;;7.80;3.13;;;;;;;9.66;44.39;97995.13;5012294;28;20476;-68
2021/03/29 03:30:50;;;;;;;4.90;2.63;;;;;;;9.71;44.25;97999.13;5010773;28;20517;-67
2021/03/29 03:33:18;;;;;;;5.50;3.07;;;;;;;9.70;43.46;97997.50;5003565;28;20836;-70
2021/03/29 03:35:44;;;;;;;3.67;2.63;;;;;;;9.75;43.45;97995.31;5009934;28;20843;-68
2021/03/29 03:38:11;;;;;;;4.57;2.40;;;;;;;9.76;43.66;97992.56;5011085;28;20420;-69
2021/03/29 03:40:38;;;;;;;4.63;3.03;;;;;;;9.74;43.70;98001.50;5020255;28;20267;-68
2021/03/29 03:43:05;;;;;;;3.13;2.83;;;;;;;9.67;43.62;97996.78;5010427;28;20454;-68
2021/03/29 03:45:33;;;;;;;3.30;2.43;;;;;;;9.65;44.25;97990.84;5009102;28;20473;-67
2021/03/29 03:48:00;;;;;;;4.70;2.97;;;;;;;9.61;43.76;97989.44;5010170;28;20451;-69
2021/03/29 03:50:25;;;;;;;2.83;2.10;;;;;;;9.54;43.96;97990.91;5009540;28;20925;-67
2021/03/29 03:52:51;;;;;;;5.67;2.70;;;;;;;9.42;44.49;97999.75;4993402;28;20455;-67
2021/03/29 03:55:18;;;;;;;5.90;3.40;;;;;;;9.61;43.90;97999.88;5008903;28;20435;-67
2021/03/29 03:57:44;;;;;;;6.80;2.60;;;;;;;9.60;43.72;97998.22;5014238;28;20419;-67
2021/03/29 04:00:13;;;;;;;3.03;2.50;;;;;;;9.59;43.22;97996.56;5010567;28;20463;-67
2021/03/29 04:02:39;;;;;;;5.87;2.90;;;;;;;9.62;43.71;98001.56;5010435;28;20231;-67
2021/03/29 04:05:09;;;;;;;4.73;2.90;;;;;;;9.65;43.27;97996.06;5012676;28;20430;-68
2021/03/29 04:07:35;;;;;;;3.70;2.50;;;;;;;9.63;43.32;98005.03;5014178;28;20435;-65
2021/03/29 04:10:13;;;;;;;3.40;2.80;;;;;;;9.58;43.15;98004.56;5017235;28;20424;-67
2021/03/29 04:12:38;;;;;;;5.67;3.30;;;;;;;9.55;43.35;98008.25;5019042;28;20207;-67
2021/03/29 04:15:06;;;;;;;6.63;2.90;;;;;;;9.54;43.84;98003.97;5013932;28;20811;-67
2021/03/29 04:17:31;;;;;;;4.40;2.87;;;;;;;9.49;43.14;98006.97;5014564;28;20212;-67
2021/03/29 04:19:57;;;;;;;6.30;2.90;;;;;;;9.50;43.45;98005.19;5012856;28;20498;-69
2021/03/29 04:22:22;;;;;;;5.67;3.20;;;;;;;9.55;42.91;98010.88;5013982;28;20216;-69
2021/03/29 04:24:48;;;;;;;4.53;2.77;;;;;;;9.55;42.73;98010.03;5013252;28;20698;-66
2021/03/29 04:27:14;;;;;;;5.50;2.77;;;;;;;9.58;43.30;98009.78;5013524;28;20689;-67
2021/03/29 04:29:39;;;;;;;8.03;3.03;;;;;;;9.66;42.99;98005.59;5014058;28;20299;-69
2021/03/29 04:32:08;;;;;;;7.83;3.30;;;;;;;9.63;43.56;98011.06;5012954;28;20200;-67
2021/03/29 04:34:33;;;;;;;3.63;2.60;;;;;;;9.54;43.59;98019.69;5014421;28;20188;-68
2021/03/29 04:36:59;;;;;;;6.10;3.30;;;;;;;9.54;43.77;98014.44;5014204;28;20455;-69
2021/03/29 04:39:25;;;;;;;22.27;6.43;;;;;;;9.18;45.18;98014.69;5015698;28;20204;-69
2021/03/29 04:41:50;;;;;;;5.70;2.80;;;;;;;9.50;44.21;98015.66;5003796;28;20208;-69
2021/03/29 04:44:16;;;;;;;45.57;10.10;;;;;;;9.23;44.82;98022.16;5014368;28;20188;-67
2021/03/29 04:46:41;;;;;;;9.93;4.20;;;;;;;9.48;43.84;98020.16;5012789;28;20188;-67
2021/03/29 04:49:07;;;;;;;7.33;2.80;;;;;;;9.51;43.49;98019.94;5013871;28;20180;-69
2021/03/29 04:51:33;;;;;;;7.17;3.33;;;;;;;9.64;43.07;98025.00;5014336;28;20828;-68
2021/03/29 04:53:58;;;;;;;8.93;2.80;;;;;;;9.73;42.65;98023.38;5013527;28;20188;-69
2021/03/29 04:56:24;;;;;;;5.77;2.57;;;;;;;9.76;42.66;98023.16;5013048;28;20710;-67
2021/03/29 04:58:50;;;;;;;5.63;2.67;;;;;;;9.64;43.10;98025.81;5012907;28;20235;-69
2021/03/29 05:01:15;;;;;;;16.73;4.77;;;;;;;9.82;41.99;98025.28;5014061;28;20212;-67
2021/03/29 05:03:41;;;;;;;4.97;3.23;;;;;;;9.93;41.90;98030.44;5013596;28;20188;-66
2021/03/29 05:06:06;;;;;;;4.13;2.10;;;;;;;10.09;42.14;98037.00;5012515;28;20188;-68
2021/03/29 05:08:32;;;;;;;3.60;2.70;;;;;;;10.17;41.90;98024.09;5012549;28;20184;-67
2021/03/29 05:10:58;;;;;;;4.23;2.80;;;;;;;10.21;41.99;98028.09;5012043;28;20651;-68
2021/03/29 05:13:23;;;;;;;3.80;2.60;;;;;;;10.22;42.22;98027.13;5013857;28;20185;-68
2021/03/29 05:15:49;;;;;;;5.23;3.50;;;;;;;10.23;42.29;98022.75;5010885;28;20184;-69
2021/03/29 05:18:14;;;;;;;11.70;3.10;;;;;;;10.25;42.67;98023.44;5013127;28;20194;-68
2021/03/29 05:20:40;;;;;;;3.87;2.80;;;;;;;10.27;41.97;98032.00;5012877;28;20199;-69
2021/03/29 05:23:06;;;;;;;7.27;2.90;;;;;;;10.28;42.01;98029.25;5030769;28;20180;-68
2021/03/29 05:25:31;;;;;;;5.83;2.80;;;;;;;10.29;41.94;98036.16;5031337;28;20199;-67
2021/03/29 05:27:57;;;;;;;9.23;3.60;;;;;;;10.32;42.00;98032.44;5033122;28;20851;-69
2021/03/29 05:30:23;;;;;;;6.47;3.50;;;;;;;10.42;41.87;98037.75;5032921;28;20279;-67
2021/03/29 05:32:48;;;;;;;5.00;2.77;;;;;;;10.48;41.85;98041.66;5033419;28;20221;-68
2021/03/29 05:35:14;;;;;;;8.00;3.27;;;;;;;10.54;41.78;98051.59;5032554;28;20820;-66
2021/03/29 05:37:40;;;;;;;10.03;3.30;;;;;;;10.59;42.00;98050.25;5032719;28;20183;-68
2021/03/29 05:40:07;;;;;;;5.70;3.10;;;;;;;10.63;42.62;98058.69;5032368;28;20705;-68
2021/03/29 05:42:33;;;;;;;5.70;3.20;;;;;;;10.71;42.60;98055.41;5031867;28;20303;-68
2021/03/29 05:45:09;;;;;;;9.20;3.30;;;;;;;10.76;42.45;98055.81;5031930;28;20446;-69
2021/03/29 05:47:35;;;;;;;8.40;3.60;;;;;;;10.85;42.22;98057.66;5032923;28;20418;-69
2021/03/29 05:50:04;;;;;;;14.83;3.40;;;;;;;10.91;41.87;98057.13;5031036;28;20422;-68
2021/03/29 05:52:30;;;;;;;11.10;4.33;;;;;;;11.00;41.42;98057.28;5021713;28;20532;-69
2021/03/29 05:54:58;;;;;;;10.13;3.77;;;;;;;11.05;41.52;98061.16;5030367;28;20601;-68
2021/03/29 05:57:25;;;;;;;9.20;3.80;;;;;;;11.09;41.82;98059.09;5031396;28;20234;-68
2021/03/29 05:59:50;;;;;;;10.20;4.00;;;;;;;11.14;41.64;98061.34;5029693;28;20921;-68
2021/03/29 06:02:28;;;;;;;14.93;4.63;;;;;;;11.24;41.50;98062.19;5032176;28;20505;-69
2021/03/29 06:04:54;;;;;;;19.53;6.00;;;;;;;11.36;41.07;98066.34;5024270;28;20176;-70
2021/03/29 06:07:20;;;;;;;21.63;5.07;;;;;;;11.48;40.77;98064.41;5033358;28;20437;-68
2021/03/29 06:09:47;;;;;;;17.90;4.73;;;;;;;11.57;40.20;98065.38;5032760;28;20175;-70
2021/03/29 06:12:15;;;;;;;20.03;4.10;;;;;;;11.65;39.40;98064.69;5028472;28;20455;-69
2021/03/29 06:14:43;;;;;;;14.83;4.13;;;;;;;11.71;39.28;98068.56;5028132;28;20428;-66
2021/03/29 06:17:20;;;;;;;10.33;3.30;;;;;;;11.83;39.47;98075.31;5023838;28;20422;-67
2021/03/29 06:19:58;;;;;;;15.20;3.93;;;;;;;11.78;38.52;98083.63;5023121;28;20466;-69
2021/03/29 06:22:31;;;;;;;8.97;3.37;;;;;;;11.68;38.01;98086.25;5025637;28;20459;-68
2021/03/29 06:25:00;;;;;;;7.57;3.17;;;;;;;12.37;37.24;98083.56;5031392;28;20878;-70
2021/03/29 06:27:28;;;;;;;7.40;3.47;;;;;;;12.78;36.76;98077.22;5032475;28;20426;-68
2021/03/29 06:30:18;;;;;;;6.57;2.87;;;;;;;13.05;35.53;98079.88;5031725;28;20933;-68
2021/03/29 06:33:07;;;;;;;7.40;2.53;;;;;;;13.28;34.64;98084.72;5031174;28;20530;-67
2021/03/29 06:35:36;;;;;;;5.93;4.27;;;;;;;14.08;33.10;98083.19;5029947;28;20427;-69
2021/03/29 06:38:23;;;;;;;9.47;3.80;;;;;;;14.01;32.31;98096.13;5021605;28;20494;-70
2021/03/29 06:40:52;;;;;;;8.47;3.20;;;;;;;14.34;32.28;98092.91;5029980;28;20903;-69
2021/03/29 06:43:27;;;;;;;5.00;3.27;;;;;;;13.92;32.52;98097.88;5032267;28;20501;-67
2021/03/29 06:45:59;;;;;;;5.77;2.83;;;;;;;14.26;32.11;98102.41;5031164;28;20926;-68
2021/03/29 06:48:28;;;;;;;4.33;2.97;;;;;;;13.80;32.66;98107.00;5029192;28;20433;-69
2021/03/29 06:51:13;;;;;;;2.10;1.80;;;;;;;13.75;32.91;98107.44;5025269;28;20451;-68
2021/03/29 06:53:56;;;;;;;4.37;2.20;;;;;;;13.34;33.01;98113.09;5023940;28;20443;-69
2021/03/29 06:56:27;;;;;;;8.20;2.10;;;;;;;13.36;32.83;98113.75;5017982;28;20418;-69
2021/03/29 06:59:10;;;;;;;2.97;2.10;;;;;;;13.73;32.75;98116.50;5026092;28;20458;-70
2021/03/29 07:01:37;;;;;;;3.70;2.00;;;;;;;13.25;33.17;98113.97;5029896;28;20446;-69
2021/03/29 07:04:04;;;;;;;6.77;2.50;;;;;;;13.30;32.83;98117.00;5029712;28;20434;-70
2021/03/29 07:06:31;;;;;;;4.83;2.40;;;;;;;13.45;32.91;98119.16;5028793;28;20425;-70
2021/03/29 07:09:07;;;;;;;5.97;2.90;;;;;;;13.46;32.87;98123.47;5014734;28;20471;-68
2021/03/29 07:11:34;;;;;;;7.80;2.90;;;;;;;13.81;32.69;98116.56;5031173;28;20438;-68
2021/03/29 07:14:02;;;;;;;5.63;2.30;;;;;;;13.96;32.32;98114.19;5030938;28;20641;-67
2021/03/29 07:16:28;;;;;;;7.40;2.03;;;;;;;13.94;32.69;98116.16;5028969;28;20514;-70
2021/03/29 07:18:58;;;;;;;8.60;2.50;;;;;;;14.28;31.96;98118.09;5026318;28;20470;-68
2021/03/29 07:21:24;;;;;;;6.47;2.50;;;;;;;14.57;31.77;98117.78;5022118;28;20442;-68
2021/03/29 07:23:51;;;;;;;7.47;2.33;;;;;;;14.52;31.93;98106.88;5028140;28;20557;-68
2021/03/29 07:26:20;;;;;;;8.30;2.80;;;;;;;14.53;31.70;98113.81;5016513;28;20721;-68
2021/03/29 07:28:46;;;;;;;5.20;2.10;;;;;;;14.67;31.79;98120.38;5027497;28;20423;-68
2021/03/29 07:31:12;;;;;;;7.50;2.47;;;;;;;14.90;31.38;98115.34;5029214;28;20442;-68
2021/03/29 07:33:53;;;;;;;6.30;2.17;;;;;;;15.12;31.42;98120.22;5029410;28;20441;-68
2021/03/29 07:36:38;;;;;;;6.83;2.33;;;;;;;14.86;31.54;98124.59;5007708;28;20183;-68
2021/03/29 07:39:03;;;;;;;2.43;2.10;;;;;;;15.07;31.10;98127.78;5030210;28;20470;-68
2021/03/29 07:41:29;;;;;;;4.60;2.07;;;;;;;15.26;31.04;98132.84;5030364;28;20545;-69
2021/03/29 07:44:12;;;;;;;5.87;3.03;;;;;;;15.29;31.10;98131.69;5029756;28;20631;-69
2021/03/29 07:46:40;;;;;;;4.60;2.57;;;;;;;15.39;30.83;98126.28;5028757;28;20186;-67
2021/03/29 07:49:43;;;;;;;7.70;2.67;;;;;;;15.58;30.58;98133.09;5030171;28;20484;-70
2021/03/29 07:52:24;;;;;;;4.43;2.37;;;;;;;15.71;30.47;98136.09;5021126;28;20983;-68
2021/03/29 07:54:50;;;;;;;3.53;2.57;;;;;;;15.78;30.53;98126.50;5029863;28;20581;-69
2021/03/29 07:57:44;;;;;;;5.00;2.50;;;;;;;16.08;30.37;98142.78;5028858;28;20454;-69
2021/03/29 08:00:22;;;;;;;9.50;3.20;;;;;;;15.78;30.48;98139.72;5014041;28;20450;-70
2021/03/29 08:02:51;;;;;;;3.23;2.33;;;;;;;16.01;30.37;98139.13;5029844;28;20434;-67
2021/03/29 08:05:35;;;;;;;7.53;3.70;;;;;;;16.02;30.22;98138.13;5030200;28;20432;-70
2021/03/29 08:08:03;;;;;;;9.97;3.10;;;;;;;15.86;30.40;98135.50;5022408;28;20768;-67
2021/03/29 08:11:12;;;;;;;13.73;4.40;;;;;;;16.45;30.06;98148.53;5030648;28;20510;-70
2021/03/29 08:13:37;;;;;;;7.93;2.90;;;;;;;16.88;29.47;98140.38;4999780;28;20790;-68
2021/03/29 08:16:07;;;;;;;7.63;3.00;;;;;;;16.76;29.31;98144.38;5006473;28;20431;-70
2021/03/29 08:19:06;;;;;;;8.17;2.67;;;;;;;17.20;28.79;98138.63;5006297;28;20632;-69
2021/03/29 08:21:52;;;;;;;12.73;4.30;;;;;;;17.45;28.80;98139.31;4992250;28;20772;-68
2021/03/29 08:24:20;;;;;;;12.27;3.50;;;;;;;17.09;28.52;98142.47;4994337;28;20909;-69
2021/03/29 08:26:47;;;;;;;8.10;3.17;;;;;;;16.42;29.39;98143.59;5006840;28;20462;-71
2021/03/29 08:29:14;;;;;;;6.00;2.30;;;;;;;16.35;29.44;98148.72;4984122;28;20806;-69
2021/03/29 08:32:06;;;;;;;5.93;2.37;;;;;;;16.55;29.01;98145.72;5008093;28;20998;-69
2021/03/29 08:35:02;;;;;;;8.40;2.33;;;;;;;16.63;29.13;98143.09;4997771;28;20417;-69
2021/03/29 08:37:36;;;;;;;6.53;2.30;;;;;;;17.00;29.13;98148.78;4974339;28;20774;-68
2021/03/29 08:40:21;;;;;;;6.57;2.20;;;;;;;16.79;28.95;98149.31;5007846;28;20461;-67
2021/03/29 08:42:48;;;;;;;4.37;2.17;;;;;;;17.12;28.19;98147.44;5007854;28;20493;-68
2021/03/29 08:45:17;;;;;;;5.73;2.20;;;;;;;17.43;27.95;98151.09;4991344;28;20426;-69
2021/03/29 08:47:44;;;;;;;10.33;2.70;;;;;;;18.04;27.22;98147.78;5021307;28;20427;-69
2021/03/29 08:50:10;;;;;;;6.93;2.30;;;;;;;18.27;26.83;98148.59;5011741;28;20434;-69
2021/03/29 08:52:40;;;;;;;7.20;2.00;;;;;;;18.69;26.44;98151.72;5029336;28;20860;-70
2021/03/29 08:55:06;;;;;;;3.80;1.90;;;;;;;19.09;25.98;98155.97;5028193;28;20721;-70
2021/03/29 08:57:32;;;;;;;4.57;1.80;;;;;;;18.79;26.09;98140.81;5017948;28;20419;-69
2021/03/29 09:00:17;;;;;;;6.73;2.17;;;;;;;18.90;26.11;98147.50;5032905;28;20493;-68
2021/03/29 09:02:42;;;;;;;3.43;1.57;;;;;;;19.08;25.96;98149.81;5033815;28;20270;-68
2021/03/29 09:05:11;;;;;;;4.73;2.20;;;;;;;18.87;26.06;98151.34;5033716;28;20438;-70
2021/03/29 09:07:43;;;;;;;6.53;2.00;;;;;;;18.31;26.69;98151.72;5034418;28;20195;-68
2021/03/29 09:10:13;;;;;;;11.03;2.10;;;;;;;18.99;26.08;98156.25;5034219;28;20409;-67
2021/03/29 09:12:39;;;;;;;6.80;1.87;;;;;;;18.92;26.09;98153.47;5031851;28;20512;-69
2021/03/29 09:15:16;;;;;;;4.87;1.80;;;;;;;19.45;25.49;98150.69;5032432;28;20423;-68
2021/03/29 09:17:43;;;;;;;5.90;1.83;;;;;;;19.13;25.80;98152.75;5034441;28;20184;-68
2021/03/29 09:20:23;;;;;;;7.63;2.20;;;;;;;18.57;26.47;98156.63;5018840;28;20469;-69
2021/03/29 09:22:48;;;;;;;5.93;2.00;;;;;;;18.22;26.78;98155.44;5013011;28;20944;-67
2021/03/29 09:25:23;;;;;;;6.80;1.80;;;;;;;18.50;26.59;98155.72;5030870;28;20442;-69
2021/03/29 09:28:08;;;;;;;6.80;2.10;;;;;;;18.93;26.06;98154.28;5033291;28;20202;-69
2021/03/29 09:30:33;;;;;;;9.20;3.07;;;;;;;18.46;26.14;98157.06;5031912;28;20465;-69
2021/03/29 09:32:59;;;;;;;3.13;1.50;;;;;;;19.02;25.14;98158.53;5031532;28;20478;-69
2021/03/29 09:35:25;;;;;;;9.20;2.30;;;;;;;18.16;25.95;98159.63;5031519;28;20468;-69
2021/03/29 09:37:50;;;;;;;13.93;1.93;;;;;;;18.86;25.30;98162.16;5031555;28;20187;-68
2021/03/29 09:40:17;;;;;;;5.73;1.83;;;;;;;18.91;25.09;98162.44;5032943;28;20223;-68
2021/03/29 09:42:44;;;;;;;6.83;1.70;;;;;;;19.55;24.25;98160.19;5033108;28;20739;-68
2021/03/29 09:45:31;;;;;;;4.63;2.07;;;;;;;19.49;24.32;98162.63;5023908;28;20414;-69
2021/03/29 09:48:10;;;;;;;75.43;22.53;;;;;;;19.52;24.20;98165.91;5031229;28;20426;-69
2021/03/29 09:50:47;;;;;;;22.57;7.47;;;;;;;19.09;24.45;98172.72;5028374;28;20411;-68
2021/03/29 09:53:12;;;;;;;47.80;12.70;;;;;;;19.33;24.36;98170.78;5025583;28;20422;-67
2021/03/29 09:55:55;;;;;;;39.23;10.00;;;;;;;20.10;23.67;98158.78;5032313;28;20421;-69
2021/03/29 09:58:26;;;;;;;4.80;2.30;;;;;;;20.68;22.72;98171.13;5016089;28;20172;-70
2021/03/29 10:00:54;;;;;;;4.10;1.70;;;;;;;19.98;21.77;98165.63;5031237;28;20890;-68
2021/03/29 10:03:21;;;;;;;3.97;1.70;;;;;;;20.66;22.15;98170.50;5031514;28;20443;-68
2021/03/29 10:05:48;;;;;;;8.10;1.80;;;;;;;20.28;22.17;98172.63;5030019;28;20422;-69
2021/03/29 10:08:53;;;;;;;4.07;1.80;;;;;;;19.91;21.87;98167.41;5030046;28;20890;-69
2021/03/29 10:11:18;;;;;;;3.67;1.80;;;;;;;20.33;21.94;98163.06;4967579;28;20919;-69
2021/03/29 10:13:44;;;;;;;5.50;1.93;;;;;;;20.34;21.57;98162.06;4990412;28;20579;-68
2021/03/29 10:16:17;;;;;;;3.80;1.97;;;;;;;21.06;21.05;98159.31;4990021;28;20181;-69
2021/03/29 10:18:42;;;;;;;8.07;2.33;;;;;;;21.23;20.86;98162.47;4990675;28;20460;-69
2021/03/29 10:21:08;;;;;;;3.20;1.70;;;;;;;21.59;20.39;98145.41;4984803;28;20457;-69
2021/03/29 10:23:40;;;;;;;11.00;3.00;;;;;;;20.71;21.37;98162.75;4989624;28;20208;-69
2021/03/29 10:26:20;;;;;;;18.13;5.00;;;;;;;20.60;21.57;98157.94;4989339;28;20320;-71
2021/03/29 10:28:53;;;;;;;2.60;1.50;;;;;;;21.31;20.54;98151.63;4973540;28;20420;-69
2021/03/29 10:31:19;;;;;;;3.70;1.80;;;;;;;21.87;19.67;98144.44;4951277;28;20779;-71
2021/03/29 10:33:45;;;;;;;23.33;5.77;;;;;;;20.78;20.32;98151.34;4990532;28;20437;-70
2021/03/29 10:36:14;;;;;;;5.77;3.00;;;;;;;21.08;20.55;98151.09;4989710;28;20383;-69
2021/03/29 10:38:40;;;;;;;8.70;3.67;;;;;;;20.86;20.22;98151.19;4990105;28;20209;-70
2021/03/29 10:41:06;;;;;;;5.00;2.27;;;;;;;20.23;20.75;98146.59;4974080;28;20840;-70
2021/03/29 10:43:31;;;;;;;7.80;3.43;;;;;;;21.22;20.21;98142.16;4989677;28;20663;-69
2021/03/29 10:45:57;;;;;;;3.80;1.80;;;;;;;21.14;20.30;98148.47;4981722;28;20261;-69
2021/03/29 10:48:23;;;;;;;4.27;1.97;;;;;;;21.86;20.01;98132.13;5026629;28;20200;-68
2021/03/29 10:50:48;;;;;;;3.80;1.70;;;;;;;21.26;21.10;98148.75;5026565;28;20176;-68
2021/03/29 10:53:14;;;;;;;9.13;3.27;;;;;;;22.04;20.09;98133.41;5031740;28;20294;-68
2021/03/29 10:55:39;;;;;;;31.70;9.00;;;;;;;20.88;20.59;98135.84;5031140;28;20683;-68
2021/03/29 10:58:05;;;;;;;4.10;1.97;;;;;;;20.98;20.69;98136.31;5027196;28;20228;-69
2021/03/29 11:00:31;;;;;;;12.03;4.73;;;;;;;21.25;19.46;98139.09;5029015;28;20204;-69
2021/03/29 11:02:56;;;;;;;4.63;2.40;;;;;;;21.42;19.13;98139.56;5031535;28;20255;-70
2021/03/29 11:05:22;;;;;;;6.43;2.83;;;;;;;21.51;19.45;98129.56;5030510;28;20179;-68
2021/03/29 11:07:48;;;;;;;2.90;1.70;;;;;;;20.81;20.26;98138.47;5023968;28;20591;-68
2021/03/29 11:10:14;;;;;;;6.70;1.90;;;;;;;21.17;19.76;98141.94;5032393;28;20176;-69
2021/03/29 11:12:40;;;;;;;8.87;1.97;;;;;;;21.01;20.42;98132.41;5031472;28;20449;-69
2021/03/29 11:15:06;;;;;;;4.87;1.93;;;;;;;20.49;21.16;98143.31;5031735;28;20179;-70
2021/03/29 11:17:34;;;;;;;6.10;1.90;;;;;;;21.49;20.50;98134.25;5030810;28;20473;-70
2021/03/29 11:19:59;;;;;;;6.03;2.07;;;;;;;21.78;20.05;98135.00;5028944;28;20450;-70
2021/03/29 11:22:25;;;;;;;3.90;1.67;;;;;;;21.82;19.60;98127.41;5025325;28;20443;-68
2021/03/29 11:24:51;;;;;;;6.13;2.67;;;;;;;22.14;19.45;98125.81;5031486;28;20282;-69
2021/03/29 11:27:16;;;;;;;5.30;2.10;;;;;;;21.74;19.64;98120.41;5029474;28;20271;-68
2021/03/29 11:29:42;;;;;;;5.10;1.83;;;;;;;21.09;20.76;98123.44;5030637;28;20233;-71
2021/03/29 11:32:07;;;;;;;12.03;3.23;;;;;;;21.77;20.22;98122.69;5021714;28;20223;-68
2021/03/29 11:34:33;;;;;;;4.17;1.70;;;;;;;21.54;19.98;98117.66;5024492;28;20194;-68
2021/03/29 11:36:59;;;;;;;4.83;1.83;;;;;;;21.72;19.73;98122.47;5028067;28;20191;-69
2021/03/29 11:39:24;;;;;;;3.93;1.70;;;;;;;22.67;19.26;98106.28;5023409;28;20204;-68
2021/03/29 11:41:50;;;;;;;10.63;1.80;;;;;;;22.38;18.92;98110.19;5020135;28;20196;-68
2021/03/29 11:44:15;;;;;;;4.87;2.20;;;;;;;22.54;19.61;98114.31;5031616;28;20179;-67